Walloon Lake, Michigan
Current Conditions -  °F | °C
As of 2:15 PM on Friday 28 Nov 2014 (Local Time) from KMGN Reporting Station
Overcast Overcast  
Wind Chill: 17°   Ceiling: 3100
Heat Index: 23°   Visibility: 10mi
Dew Point: 16°   Wind: 5mph
Humidity: 74%   Direction: 170°S
Pressure: 30.11"   Gusts: NA
Location:  45.27°N, 84.93°W
Report Text: KMGN 281915Z AUTO 17004KT 10SM BKN031 OVC039 M05/M08 A3011 RMK AO2 T10481088
Loading
Personal Weather Stations






























Interactive Weather Map New forecast layout! Learn more

10-Day Weather Forecast

Advertisements
Track Severe Weather on mobile